sensor_id;sensor_type;location;lat;lon;timestamp;pressure;altitude;pressure_sealevel;temperature;humidity
7760;BME280;3924;48.830;9.262;2023-07-20T00:01:50;98380.59;;;21.60;49.67
7760;BME280;3924;48.830;9.262;2023-07-20T00:04:17;98394.78;;;21.58;49.55
7760;BME280;3924;48.830;9.262;2023-07-20T00:06:44;98394.38;;;21.56;49.63
7760;BME280;3924;48.830;9.262;2023-07-20T00:09:11;98397.50;;;21.55;49.74
7760;BME280;3924;48.830;9.262;2023-07-20T00:11:38;98397.00;;;21.49;49.62
7760;BME280;3924;48.830;9.262;2023-07-20T00:14:05;98395.75;;;21.47;49.74
7760;BME280;3924;48.830;9.262;2023-07-20T00:16:32;98407.16;;;21.45;49.92
7760;BME280;3924;48.830;9.262;2023-07-20T00:18:59;98402.41;;;21.42;49.91
7760;BME280;3924;48.830;9.262;2023-07-20T00:21:25;98400.31;;;21.36;49.81
7760;BME280;3924;48.830;9.262;2023-07-20T00:23:52;98399.06;;;21.33;50.13
7760;BME280;3924;48.830;9.262;2023-07-20T00:26:19;98408.53;;;21.32;50.05
7760;BME280;3924;48.830;9.262;2023-07-20T00:28:48;98402.16;;;21.28;50.11
7760;BME280;3924;48.830;9.262;2023-07-20T00:31:15;98405.97;;;21.23;50.25
7760;BME280;3924;48.830;9.262;2023-07-20T00:33:41;98391.69;;;21.18;50.23
7760;BME280;3924;48.830;9.262;2023-07-20T00:36:08;98398.38;;;21.17;50.44
7760;BME280;3924;48.830;9.262;2023-07-20T00:38:34;98397.94;;;21.15;50.36
7760;BME280;3924;48.830;9.262;2023-07-20T00:41:01;98402.59;;;21.11;50.15
7760;BME280;3924;48.830;9.262;2023-07-20T00:43:27;98402.88;;;21.06;50.39
7760;BME280;3924;48.830;9.262;2023-07-20T00:45:55;98400.78;;;20.99;50.53
7760;BME280;3924;48.830;9.262;2023-07-20T00:48:22;98408.59;;;20.93;50.58
7760;BME280;3924;48.830;9.262;2023-07-20T00:50:48;98409.25;;;20.87;50.58
7760;BME280;3924;48.830;9.262;2023-07-20T00:53:16;98400.91;;;20.83;50.56
7760;BME280;3924;48.830;9.262;2023-07-20T00:55:43;98405.53;;;20.79;50.67
7760;BME280;3924;48.830;9.262;2023-07-20T00:58:10;98403.09;;;20.74;50.58
7760;BME280;3924;48.830;9.262;2023-07-20T01:00:37;98412.81;;;20.68;50.73
7760;BME280;3924;48.830;9.262;2023-07-20T01:03:03;98412.72;;;20.64;50.65
7760;BME280;3924;48.830;9.262;2023-07-20T01:08:40;98410.28;;;20.59;50.52
7760;BME280;3924;48.830;9.262;2023-07-20T01:11:15;98409.81;;;20.57;50.59
7760;BME280;3924;48.830;9.262;2023-07-20T01:13:43;98412.50;;;20.54;50.63
7760;BME280;3924;48.830;9.262;2023-07-20T01:16:10;98406.06;;;20.46;50.76
7760;BME280;3924;48.830;9.262;2023-07-20T01:18:38;98400.81;;;20.41;50.50
7760;BME280;3924;48.830;9.262;2023-07-20T01:21:13;98391.75;;;20.40;50.71
7760;BME280;3924;48.830;9.262;2023-07-20T01:23:56;98404.19;;;20.34;50.68
7760;BME280;3924;48.830;9.262;2023-07-20T01:29:14;98410.78;;;20.30;50.89
7760;BME280;3924;48.830;9.262;2023-07-20T01:31:44;98404.75;;;20.24;50.85
7760;BME280;3924;48.830;9.262;2023-07-20T01:34:12;98404.75;;;20.24;50.81
7760;BME280;3924;48.830;9.262;2023-07-20T01:36:41;98407.50;;;20.24;50.55
7760;BME280;3924;48.830;9.262;2023-07-20T01:39:09;98402.75;;;20.21;50.87
7760;BME280;3924;48.830;9.262;2023-07-20T01:41:35;98410.56;;;20.19;50.84
7760;BME280;3924;48.830;9.262;2023-07-20T01:44:03;98406.13;;;20.14;50.79
7760;BME280;3924;48.830;9.262;2023-07-20T01:46:30;98398.25;;;20.13;51.01
7760;BME280;3924;48.830;9.262;2023-07-20T01:48:57;98399.66;;;20.07;51.11
7760;BME280;3924;48.830;9.262;2023-07-20T01:51:23;98400.38;;;20.04;51.17
7760;BME280;3924;48.830;9.262;2023-07-20T01:53:50;98404.75;;;20.05;51.22
7760;BME280;3924;48.830;9.262;2023-07-20T01:56:17;98409.00;;;20.02;51.18
7760;BME280;3924;48.830;9.262;2023-07-20T01:58:43;98408.63;;;20.04;51.03
7760;BME280;3924;48.830;9.262;2023-07-20T02:01:10;98413.28;;;20.00;51.17
7760;BME280;3924;48.830;9.262;2023-07-20T02:03:36;98411.16;;;19.93;51.16
7760;BME280;3924;48.830;9.262;2023-07-20T02:06:03;98411.41;;;19.88;51.37
7760;BME280;3924;48.830;9.262;2023-07-20T02:08:29;98418.19;;;19.90;51.46
7760;BME280;3924;48.830;9.262;2023-07-20T02:10:56;98418.97;;;19.91;51.37
7760;BME280;3924;48.830;9.262;2023-07-20T02:13:22;98408.75;;;19.91;51.09
7760;BME280;3924;48.830;9.262;2023-07-20T02:15:49;98413.81;;;19.89;51.92
7760;BME280;3924;48.830;9.262;2023-07-20T02:18:17;98410.88;;;19.82;51.56
7760;BME280;3924;48.830;9.262;2023-07-20T02:20:43;98414.72;;;19.78;51.82
7760;BME280;3924;48.830;9.262;2023-07-20T02:23:11;98408.88;;;19.79;51.78
7760;BME280;3924;48.830;9.262;2023-07-20T02:25:38;98414.81;;;19.81;51.77
7760;BME280;3924;48.830;9.262;2023-07-20T02:28:07;98413.22;;;19.80;51.58
7760;BME280;3924;48.830;9.262;2023-07-20T02:30:38;98417.81;;;19.76;51.88
7760;BME280;3924;48.830;9.262;2023-07-20T02:33:05;98412.97;;;19.70;51.88
7760;BME280;3924;48.830;9.262;2023-07-20T02:35:33;98413.75;;;19.70;52.06
7760;BME280;3924;48.830;9.262;2023-07-20T02:37:59;98417.66;;;19.69;52.02
7760;BME280;3924;48.830;9.262;2023-07-20T02:40:25;98412.13;;;19.69;51.86
7760;BME280;3924;48.830;9.262;2023-07-20T02:42:52;98415.63;;;19.66;52.20
7760;BME280;3924;48.830;9.262;2023-07-20T02:45:18;98411.63;;;19.63;52.36
7760;BME280;3924;48.830;9.262;2023-07-20T02:47:46;98416.78;;;19.65;52.26
7760;BME280;3924;48.830;9.262;2023-07-20T02:50:12;98415.88;;;19.61;52.49
7760;BME280;3924;48.830;9.262;2023-07-20T02:52:40;98420.59;;;19.60;52.44
7760;BME280;3924;48.830;9.262;2023-07-20T02:55:07;98422.09;;;19.58;52.55
7760;BME280;3924;48.830;9.262;2023-07-20T02:57:35;98430.22;;;19.54;52.65
7760;BME280;3924;48.830;9.262;2023-07-20T03:00:03;98427.75;;;19.49;52.80
7760;BME280;3924;48.830;9.262;2023-07-20T03:02:31;98425.28;;;19.44;53.06
7760;BME280;3924;48.830;9.262;2023-07-20T03:04:58;98423.31;;;19.45;52.98
7760;BME280;3924;48.830;9.262;2023-07-20T03:07:27;98425.63;;;19.43;53.02
7760;BME280;3924;48.830;9.262;2023-07-20T03:09:54;98424.91;;;19.46;53.08
7760;BME280;3924;48.830;9.262;2023-07-20T03:12:21;98421.72;;;19.44;53.11
7760;BME280;3924;48.830;9.262;2023-07-20T03:14:48;98434.13;;;19.37;53.23
7760;BME280;3924;48.830;9.262;2023-07-20T03:17:14;98438.03;;;19.36;53.37
7760;BME280;3924;48.830;9.262;2023-07-20T03:19:41;98447.34;;;19.32;53.47
7760;BME280;3924;48.830;9.262;2023-07-20T03:22:07;98444.03;;;19.26;53.79
7760;BME280;3924;48.830;9.262;2023-07-20T03:24:34;98446.34;;;19.24;53.70
7760;BME280;3924;48.830;9.262;2023-07-20T03:27:00;98443.16;;;19.22;53.75
7760;BME280;3924;48.830;9.262;2023-07-20T03:29:27;98438.78;;;19.21;53.80
7760;BME280;3924;48.830;9.262;2023-07-20T03:31:53;98432.41;;;19.17;54.17
7760;BME280;3924;48.830;9.262;2023-07-20T03:34:20;98437.47;;;19.15;53.67
7760;BME280;3924;48.830;9.262;2023-07-20T03:36:46;98445.25;;;19.13;54.24
7760;BME280;3924;48.830;9.262;2023-07-20T03:39:13;98435.66;;;19.07;54.12
7760;BME280;3924;48.830;9.262;2023-07-20T03:41:39;98439.69;;;19.09;54.22
7760;BME280;3924;48.830;9.262;2023-07-20T03:44:06;98439.56;;;19.06;54.23
7760;BME280;3924;48.830;9.262;2023-07-20T03:46:32;98445.53;;;19.08;54.60
7760;BME280;3924;48.830;9.262;2023-07-20T03:49:00;98445.53;;;19.08;54.56
7760;BME280;3924;48.830;9.262;2023-07-20T03:51:27;98450.47;;;19.02;54.57
7760;BME280;3924;48.830;9.262;2023-07-20T03:53:53;98454.97;;;18.95;54.78
7760;BME280;3924;48.830;9.262;2023-07-20T03:56:19;98453.72;;;18.92;54.65
7760;BME280;3924;48.830;9.262;2023-07-20T03:58:46;98449.50;;;18.95;54.72
7760;BME280;3924;48.830;9.262;2023-07-20T04:01:13;98448.34;;;18.96;54.78
7760;BME280;3924;48.830;9.262;2023-07-20T04:03:40;98447.97;;;18.97;54.98
7760;BME280;3924;48.830;9.262;2023-07-20T04:06:07;98454.38;;;19.01;54.85
7760;BME280;3924;48.830;9.262;2023-07-20T04:08:35;98448.28;;;19.08;54.82
7760;BME280;3924;48.830;9.262;2023-07-20T04:11:03;98451.34;;;19.06;54.88
7760;BME280;3924;48.830;9.262;2023-07-20T04:13:29;98452.94;;;19.07;55.21
7760;BME280;3924;48.830;9.262;2023-07-20T04:16:00;98459.34;;;19.11;54.86
7760;BME280;3924;48.830;9.262;2023-07-20T04:18:26;98458.13;;;19.09;54.94
7760;BME280;3924;48.830;9.262;2023-07-20T04:20:53;98463.16;;;19.07;55.13
7760;BME280;3924;48.830;9.262;2023-07-20T04:23:19;98462.47;;;19.10;54.87
7760;BME280;3924;48.830;9.262;2023-07-20T04:25:46;98458.63;;;19.14;54.84
7760;BME280;3924;48.830;9.262;2023-07-20T04:28:12;98463.63;;;19.25;54.76
7760;BME280;3924;48.830;9.262;2023-07-20T04:30:39;98466.13;;;19.30;54.68
7760;BME280;3924;48.830;9.262;2023-07-20T04:33:08;98463.03;;;19.31;54.89
7760;BME280;3924;48.830;9.262;2023-07-20T04:35:53;98464.97;;;19.31;54.95
7760;BME280;3924;48.830;9.262;2023-07-20T04:38:21;98458.44;;;19.35;54.76
7760;BME280;3924;48.830;9.262;2023-07-20T04:40:48;98463.66;;;19.40;54.69
7760;BME280;3924;48.830;9.262;2023-07-20T04:43:16;98464.44;;;19.41;54.64
7760;BME280;3924;48.830;9.262;2023-07-20T04:45:43;98461.38;;;19.43;54.66
7760;BME280;3924;48.830;9.262;2023-07-20T04:48:11;98467.31;;;19.45;54.77
7760;BME280;3924;48.830;9.262;2023-07-20T04:50:39;98452.50;;;19.49;54.79
7760;BME280;3924;48.830;9.262;2023-07-20T04:53:06;98459.13;;;19.48;54.84
7760;BME280;3924;48.830;9.262;2023-07-20T04:55:32;98456.75;;;19.47;54.74
7760;BME280;3924;48.830;9.262;2023-07-20T04:58:03;98460.13;;;19.56;54.74
7760;BME280;3924;48.830;9.262;2023-07-20T05:00:31;98464.78;;;19.67;54.79
7760;BME280;3924;48.830;9.262;2023-07-20T05:02:58;98464.25;;;19.78;54.32
7760;BME280;3924;48.830;9.262;2023-07-20T05:05:25;98466.81;;;19.86;54.33
7760;BME280;3924;48.830;9.262;2023-07-20T05:07:51;98462.72;;;19.96;54.35
7760;BME280;3924;48.830;9.262;2023-07-20T05:10:18;98466.41;;;20.04;53.97
7760;BME280;3924;48.830;9.262;2023-07-20T05:12:44;98463.50;;;19.97;54.05
7760;BME280;3924;48.830;9.262;2023-07-20T05:15:11;98469.75;;;19.93;54.17
7760;BME280;3924;48.830;9.262;2023-07-20T05:17:38;98463.41;;;20.09;53.93
7760;BME280;3924;48.830;9.262;2023-07-20T05:20:06;98463.31;;;20.21;53.69
7760;BME280;3924;48.830;9.262;2023-07-20T05:22:32;98463.63;;;20.35;53.45
7760;BME280;3924;48.830;9.262;2023-07-20T05:25:00;98466.00;;;20.53;52.89
7760;BME280;3924;48.830;9.262;2023-07-20T05:27:26;98465.13;;;20.48;52.97
7760;BME280;3924;48.830;9.262;2023-07-20T05:29:52;98461.47;;;20.44;53.29
7760;BME280;3924;48.830;9.262;2023-07-20T05:32:19;98465.84;;;20.45;53.43
7760;BME280;3924;48.830;9.262;2023-07-20T05:34:46;98465.38;;;20.43;53.33
7760;BME280;3924;48.830;9.262;2023-07-20T05:37:12;98464.38;;;20.52;53.52
7760;BME280;3924;48.830;9.262;2023-07-20T05:39:40;98464.91;;;20.57;53.22
7760;BME280;3924;48.830;9.262;2023-07-20T05:42:07;98459.22;;;20.66;53.09
7760;BME280;3924;48.830;9.262;2023-07-20T05:44:33;98457.47;;;20.77;52.70
7760;BME280;3924;48.830;9.262;2023-07-20T05:47:00;98460.59;;;20.75;52.71
7760;BME280;3924;48.830;9.262;2023-07-20T05:49:29;98459.34;;;20.92;52.53
7760;BME280;3924;48.830;9.262;2023-07-20T05:51:56;98459.94;;;21.01;52.35
7760;BME280;3924;48.830;9.262;2023-07-20T05:54:26;98456.16;;;21.10;52.14
7760;BME280;3924;48.830;9.262;2023-07-20T05:56:53;98456.69;;;21.19;52.03
7760;BME280;3924;48.830;9.262;2023-07-20T05:59:19;98457.75;;;21.30;51.70
7760;BME280;3924;48.830;9.262;2023-07-20T06:01:46;98471.91;;;21.51;51.40
7760;BME280;3924;48.830;9.262;2023-07-20T06:04:15;98465.47;;;21.67;51.08
7760;BME280;3924;48.830;9.262;2023-07-20T06:06:42;98462.78;;;21.70;50.98
7760;BME280;3924;48.830;9.262;2023-07-20T06:09:08;98466.31;;;21.48;51.46
7760;BME280;3924;48.830;9.262;2023-07-20T06:11:39;98467.44;;;21.24;51.97
7760;BME280;3924;48.830;9.262;2023-07-20T06:14:05;98466.25;;;21.02;52.44
7760;BME280;3924;48.830;9.262;2023-07-20T06:16:32;98475.88;;;21.12;52.36
7760;BME280;3924;48.830;9.262;2023-07-20T06:19:00;98468.59;;;21.42;51.73
7760;BME280;3924;48.830;9.262;2023-07-20T06:21:26;98468.72;;;21.49;51.33
7760;BME280;3924;48.830;9.262;2023-07-20T06:23:53;98468.84;;;21.56;51.25
7760;BME280;3924;48.830;9.262;2023-07-20T06:26:19;98467.94;;;21.49;51.50
7760;BME280;3924;48.830;9.262;2023-07-20T06:28:47;98469.16;;;21.51;51.41
7760;BME280;3924;48.830;9.262;2023-07-20T06:31:14;98469.28;;;21.36;51.69
7760;BME280;3924;48.830;9.262;2023-07-20T06:33:40;98470.78;;;21.33;52.00
7760;BME280;3924;48.830;9.262;2023-07-20T06:36:07;98469.28;;;21.36;51.89
7760;BME280;3924;48.830;9.262;2023-07-20T06:38:34;98459.34;;;21.54;51.39
7760;BME280;3924;48.830;9.262;2023-07-20T06:41:00;98460.53;;;21.76;51.00
7760;BME280;3924;48.830;9.262;2023-07-20T06:43:30;98458.09;;;21.97;50.52
7760;BME280;3924;48.830;9.262;2023-07-20T06:45:59;98466.03;;;21.76;51.05
7760;BME280;3924;48.830;9.262;2023-07-20T06:48:26;98462.25;;;21.88;50.86
7760;BME280;3924;48.830;9.262;2023-07-20T06:50:52;98468.38;;;22.00;50.51
7760;BME280;3924;48.830;9.262;2023-07-20T06:53:20;98463.25;;;21.99;50.55
7760;BME280;3924;48.830;9.262;2023-07-20T06:55:46;98468.47;;;21.81;51.05
7760;BME280;3924;48.830;9.262;2023-07-20T06:58:18;98457.94;;;21.64;51.37
7760;BME280;3924;48.830;9.262;2023-07-20T07:00:45;98458.41;;;21.46;51.81
7760;BME280;3924;48.830;9.262;2023-07-20T07:03:12;98458.25;;;21.36;51.97
7760;BME280;3924;48.830;9.262;2023-07-20T07:05:38;98458.78;;;21.68;51.55
7760;BME280;3924;48.830;9.262;2023-07-20T07:08:05;98452.44;;;22.13;50.63
7760;BME280;3924;48.830;9.262;2023-07-20T07:10:32;98457.69;;;22.48;49.75
7760;BME280;3924;48.830;9.262;2023-07-20T07:12:59;98456.00;;;22.70;49.50
7760;BME280;3924;48.830;9.262;2023-07-20T07:15:26;98456.78;;;22.71;49.28
7760;BME280;3924;48.830;9.262;2023-07-20T07:17:54;98452.81;;;22.68;49.48
7760;BME280;3924;48.830;9.262;2023-07-20T07:20:21;98455.66;;;22.75;49.40
7760;BME280;3924;48.830;9.262;2023-07-20T07:22:50;98453.38;;;22.81;49.34
7760;BME280;3924;48.830;9.262;2023-07-20T07:25:18;98452.31;;;22.59;49.63
7760;BME280;3924;48.830;9.262;2023-07-20T07:27:49;98453.84;;;22.56;49.77
7760;BME280;3924;48.830;9.262;2023-07-20T07:30:16;98456.63;;;22.30;50.20
7760;BME280;3924;48.830;9.262;2023-07-20T07:32:42;98448.25;;;22.23;50.20
7760;BME280;3924;48.830;9.262;2023-07-20T07:35:09;98444.66;;;22.19;50.44
7760;BME280;3924;48.830;9.262;2023-07-20T07:37:36;98452.72;;;22.31;50.28
7760;BME280;3924;48.830;9.262;2023-07-20T07:40:22;98450.09;;;22.15;50.33
7760;BME280;3924;48.830;9.262;2023-07-20T07:42:49;98447.69;;;22.10;50.46
7760;BME280;3924;48.830;9.262;2023-07-20T07:45:15;98449.84;;;22.01;50.64
7760;BME280;3924;48.830;9.262;2023-07-20T07:47:43;98441.81;;;22.15;50.43
7760;BME280;3924;48.830;9.262;2023-07-20T07:50:10;98448.50;;;22.14;50.44
7760;BME280;3924;48.830;9.262;2023-07-20T07:52:36;98454.00;;;22.10;50.59
7760;BME280;3924;48.830;9.262;2023-07-20T07:55:04;98450.06;;;22.38;49.84
7760;BME280;3924;48.830;9.262;2023-07-20T07:57:30;98453.38;;;22.81;49.33
7760;BME280;3924;48.830;9.262;2023-07-20T07:59:57;98448.03;;;22.95;48.73
7760;BME280;3924;48.830;9.262;2023-07-20T08:02:23;98450.78;;;23.29;47.90
7760;BME280;3924;48.830;9.262;2023-07-20T08:04:50;98452.03;;;23.35;48.09
7760;BME280;3924;48.830;9.262;2023-07-20T08:07:18;98433.41;;;23.32;47.73
7760;BME280;3924;48.830;9.262;2023-07-20T08:09:45;98440.13;;;23.71;47.19
7760;BME280;3924;48.830;9.262;2023-07-20T08:12:12;98434.38;;;23.94;46.74
7760;BME280;3924;48.830;9.262;2023-07-20T08:14:40;98439.28;;;23.67;47.19
7760;BME280;3924;48.830;9.262;2023-07-20T08:17:06;98447.81;;;23.48;47.64
7760;BME280;3924;48.830;9.262;2023-07-20T08:19:33;98431.59;;;23.91;46.75
7760;BME280;3924;48.830;9.262;2023-07-20T08:22:01;98430.06;;;23.97;46.49
7760;BME280;3924;48.830;9.262;2023-07-20T08:24:28;98439.19;;;23.57;47.45
7760;BME280;3924;48.830;9.262;2023-07-20T08:26:55;98435.31;;;23.24;48.04
7760;BME280;3924;48.830;9.262;2023-07-20T08:29:22;98437.78;;;22.96;48.40
7760;BME280;3924;48.830;9.262;2023-07-20T08:31:49;98439.31;;;22.63;49.07
7760;BME280;3924;48.830;9.262;2023-07-20T08:34:15;98432.72;;;22.41;49.41
7760;BME280;3924;48.830;9.262;2023-07-20T08:36:57;98447.91;;;22.28;49.82
7760;BME280;3924;48.830;9.262;2023-07-20T08:39:24;98443.00;;;22.14;49.98
7760;BME280;3924;48.830;9.262;2023-07-20T08:41:51;98444.34;;;22.01;50.08
7760;BME280;3924;48.830;9.262;2023-07-20T08:44:20;98445.34;;;22.12;49.95
7760;BME280;3924;48.830;9.262;2023-07-20T08:46:47;98450.06;;;22.68;48.73
7760;BME280;3924;48.830;9.262;2023-07-20T08:49:17;98444.66;;;23.12;47.84
7760;BME280;3924;48.830;9.262;2023-07-20T08:51:45;98448.38;;;23.64;46.87
7760;BME280;3924;48.830;9.262;2023-07-20T08:54:13;98437.94;;;23.95;45.97
7760;BME280;3924;48.830;9.262;2023-07-20T08:56:41;98436.19;;;24.24;45.45
7760;BME280;3924;48.830;9.262;2023-07-20T08:59:09;98432.38;;;24.50;44.93
7760;BME280;3924;48.830;9.262;2023-07-20T09:01:37;98441.59;;;24.72;44.65
7760;BME280;3924;48.830;9.262;2023-07-20T09:04:06;98432.16;;;24.91;44.17
7760;BME280;3924;48.830;9.262;2023-07-20T09:06:32;98425.84;;;25.01;43.91
7760;BME280;3924;48.830;9.262;2023-07-20T09:09:01;98434.56;;;24.92;43.83
7760;BME280;3924;48.830;9.262;2023-07-20T09:11:28;98433.31;;;24.82;44.08
7760;BME280;3924;48.830;9.262;2023-07-20T09:14:05;98433.66;;;24.70;44.10
7760;BME280;3924;48.830;9.262;2023-07-20T09:16:47;98428.72;;;24.35;44.97
7760;BME280;3924;48.830;9.262;2023-07-20T09:19:16;98430.38;;;24.43;44.56
7760;BME280;3924;48.830;9.262;2023-07-20T09:21:50;98434.78;;;24.55;44.22
7760;BME280;3924;48.830;9.262;2023-07-20T09:24:19;98421.00;;;24.76;43.86
7760;BME280;3924;48.830;9.262;2023-07-20T09:26:47;98430.66;;;25.07;43.16
7760;BME280;3924;48.830;9.262;2023-07-20T09:29:18;98437.81;;;25.12;43.10
7760;BME280;3924;48.830;9.262;2023-07-20T09:32:07;98440.00;;;24.67;43.82
7760;BME280;3924;48.830;9.262;2023-07-20T09:34:50;98440.69;;;24.50;44.23
7760;BME280;3924;48.830;9.262;2023-07-20T09:37:22;98432.03;;;24.62;43.95
7760;BME280;3924;48.830;9.262;2023-07-20T09:39:52;98432.50;;;24.71;43.59
7760;BME280;3924;48.830;9.262;2023-07-20T09:42:22;98425.88;;;24.24;44.35
7760;BME280;3924;48.830;9.262;2023-07-20T09:44:52;98422.03;;;23.85;44.73
7760;BME280;3924;48.830;9.262;2023-07-20T09:47:22;98431.53;;;23.84;45.27
7760;BME280;3924;48.830;9.262;2023-07-20T09:49:59;98427.97;;;24.38;44.13
7760;BME280;3924;48.830;9.262;2023-07-20T09:52:33;98421.06;;;24.87;43.13
7760;BME280;3924;48.830;9.262;2023-07-20T09:55:03;98418.03;;;25.28;42.26
7760;BME280;3924;48.830;9.262;2023-07-20T09:57:32;98417.19;;;25.06;42.48
7760;BME280;3924;48.830;9.262;2023-07-20T09:59:59;98420.09;;;24.44;43.59
7760;BME280;3924;48.830;9.262;2023-07-20T10:02:33;98421.78;;;24.04;44.08
7760;BME280;3924;48.830;9.262;2023-07-20T10:05:03;98416.78;;;24.27;43.87
7760;BME280;3924;48.830;9.262;2023-07-20T10:07:36;98408.09;;;24.33;43.27
7760;BME280;3924;48.830;9.262;2023-07-20T10:10:09;98412.25;;;24.67;42.89
7760;BME280;3924;48.830;9.262;2023-07-20T10:12:37;98412.38;;;25.03;42.02
7760;BME280;3924;48.830;9.262;2023-07-20T10:15:29;98403.75;;;25.19;41.30
7760;BME280;3924;48.830;9.262;2023-07-20T10:18:28;98386.31;;;25.47;41.02
7760;BME280;3924;48.830;9.262;2023-07-20T10:20:55;98395.03;;;25.67;40.67
7760;BME280;3924;48.830;9.262;2023-07-20T10:23:28;98395.03;;;25.45;40.67
7760;BME280;3924;48.830;9.262;2023-07-20T10:25:57;98395.81;;;25.53;40.72
7760;BME280;3924;48.830;9.262;2023-07-20T10:28:26;98390.97;;;24.93;41.21
7760;BME280;3924;48.830;9.262;2023-07-20T10:30:54;98394.81;;;24.63;41.52
7760;BME280;3924;48.830;9.262;2023-07-20T10:33:21;98381.25;;;24.37;41.78
7760;BME280;3924;48.830;9.262;2023-07-20T10:36:00;98380.44;;;24.36;41.81
7760;BME280;3924;48.830;9.262;2023-07-20T10:38:52;98392.41;;;24.51;41.41
7760;BME280;3924;48.830;9.262;2023-07-20T10:41:27;98384.97;;;24.73;40.87
7760;BME280;3924;48.830;9.262;2023-07-20T10:44:01;98390.63;;;25.05;40.26
7760;BME280;3924;48.830;9.262;2023-07-20T10:49:08;98372.81;;;25.20;39.47
7760;BME280;3924;48.830;9.262;2023-07-20T10:51:43;98382.34;;;25.26;39.46
7760;BME280;3924;48.830;9.262;2023-07-20T10:56:43;98375.19;;;25.22;39.31
7760;BME280;3924;48.830;9.262;2023-07-20T10:59:37;98368.47;;;25.26;38.85
7760;BME280;3924;48.830;9.262;2023-07-20T11:02:08;98349.03;;;25.26;38.71
7760;BME280;3924;48.830;9.262;2023-07-20T11:04:45;98377.56;;;25.37;38.55
7760;BME280;3924;48.830;9.262;2023-07-20T11:07:16;98365.69;;;25.48;38.30
7760;BME280;3924;48.830;9.262;2023-07-20T11:09:43;98363.31;;;25.57;38.39
7760;BME280;3924;48.830;9.262;2023-07-20T11:12:16;98369.25;;;25.73;37.79
7760;BME280;3924;48.830;9.262;2023-07-20T11:15:01;98371.25;;;25.83;37.44
7760;BME280;3924;48.830;9.262;2023-07-20T11:17:30;98371.25;;;25.90;37.43
7760;BME280;3924;48.830;9.262;2023-07-20T11:19:58;98372.81;;;25.95;37.12
7760;BME280;3924;48.830;9.262;2023-07-20T11:22:27;98362.88;;;26.05;36.97
7760;BME280;3924;48.830;9.262;2023-07-20T11:24:58;98368.00;;;26.17;36.70
7760;BME280;3924;48.830;9.262;2023-07-20T11:27:24;98366.00;;;26.14;36.64
7760;BME280;3924;48.830;9.262;2023-07-20T11:29:51;98365.63;;;26.12;36.70
7760;BME280;3924;48.830;9.262;2023-07-20T11:32:23;98357.63;;;26.28;36.21
7760;BME280;3924;48.830;9.262;2023-07-20T11:34:50;98362.41;;;26.31;36.24
7760;BME280;3924;48.830;9.262;2023-07-20T11:37:17;98364.03;;;26.18;36.25
7760;BME280;3924;48.830;9.262;2023-07-20T11:39:44;98359.66;;;26.13;36.26
7760;BME280;3924;48.830;9.262;2023-07-20T11:42:11;98362.44;;;26.24;36.10
7760;BME280;3924;48.830;9.262;2023-07-20T11:44:38;98354.50;;;26.23;35.94
7760;BME280;3924;48.830;9.262;2023-07-20T11:47:09;98350.09;;;26.39;35.69
7760;BME280;3924;48.830;9.262;2023-07-20T11:49:40;98354.03;;;26.49;35.23
7760;BME280;3924;48.830;9.262;2023-07-20T11:52:09;98359.13;;;26.65;35.35
7760;BME280;3924;48.830;9.262;2023-07-20T11:54:37;98348.66;;;26.83;34.82
7760;BME280;3924;48.830;9.262;2023-07-20T11:57:05;98344.72;;;26.81;34.84
7760;BME280;3924;48.830;9.262;2023-07-20T11:59:32;98339.16;;;26.81;34.90
7760;BME280;3924;48.830;9.262;2023-07-20T12:02:02;98355.94;;;26.70;35.03
7760;BME280;3924;48.830;9.262;2023-07-20T12:04:31;98331.28;;;26.72;34.72
7760;BME280;3924;48.830;9.262;2023-07-20T12:06:59;98327.31;;;26.66;34.55
7760;BME280;3924;48.830;9.262;2023-07-20T12:09:26;98330.31;;;27.00;34.46
7760;BME280;3924;48.830;9.262;2023-07-20T12:12:10;98331.78;;;27.19;34.10
7760;BME280;3924;48.830;9.262;2023-07-20T12:14:39;98318.97;;;27.29;33.69
7760;BME280;3924;48.830;9.262;2023-07-20T12:17:08;98311.03;;;27.27;33.65
7760;BME280;3924;48.830;9.262;2023-07-20T12:19:38;98322.75;;;27.00;34.09
7760;BME280;3924;48.830;9.262;2023-07-20T12:22:06;98310.44;;;26.94;34.09
7760;BME280;3924;48.830;9.262;2023-07-20T12:24:33;98317.53;;;27.10;33.57
7760;BME280;3924;48.830;9.262;2023-07-20T12:27:00;98318.56;;;27.30;33.84
7760;BME280;3924;48.830;9.262;2023-07-20T12:29:26;98309.41;;;27.33;33.22
7760;BME280;3924;48.830;9.262;2023-07-20T12:31:53;98290.84;;;27.61;33.10
7760;BME280;3924;48.830;9.262;2023-07-20T12:34:19;98307.31;;;27.89;32.61
7760;BME280;3924;48.830;9.262;2023-07-20T12:36:46;98311.56;;;27.60;32.75
7760;BME280;3924;48.830;9.262;2023-07-20T12:39:12;98310.22;;;27.30;33.23
7760;BME280;3924;48.830;9.262;2023-07-20T12:41:39;98302.38;;;27.18;33.36
7760;BME280;3924;48.830;9.262;2023-07-20T12:44:05;98305.84;;;27.29;33.44
7760;BME280;3924;48.830;9.262;2023-07-20T12:46:32;98299.38;;;27.43;32.88
7760;BME280;3924;48.830;9.262;2023-07-20T12:49:01;98291.38;;;27.45;33.04
7760;BME280;3924;48.830;9.262;2023-07-20T12:51:28;98289.66;;;27.62;32.49
7760;BME280;3924;48.830;9.262;2023-07-20T12:53:54;98283.00;;;27.90;32.21
7760;BME280;3924;48.830;9.262;2023-07-20T12:56:21;98280.56;;;27.95;32.45
7760;BME280;3924;48.830;9.262;2023-07-20T12:58:50;98282.75;;;27.77;32.25
7760;BME280;3924;48.830;9.262;2023-07-20T13:01:16;98274.13;;;27.61;32.17
7760;BME280;3924;48.830;9.262;2023-07-20T13:03:43;98274.22;;;27.53;32.36
7760;BME280;3924;48.830;9.262;2023-07-20T13:06:12;98268.59;;;27.57;32.13
7760;BME280;3924;48.830;9.262;2023-07-20T13:08:42;98276.28;;;27.87;31.97
7760;BME280;3924;48.830;9.262;2023-07-20T13:11:08;98270.94;;;28.00;31.58
7760;BME280;3924;48.830;9.262;2023-07-20T13:13:35;98275.63;;;27.72;31.96
7760;BME280;3924;48.830;9.262;2023-07-20T13:16:02;98269.53;;;27.43;32.17
7760;BME280;3924;48.830;9.262;2023-07-20T13:18:29;98272.63;;;27.52;31.99
7760;BME280;3924;48.830;9.262;2023-07-20T13:20:56;98258.78;;;26.93;32.74
7760;BME280;3924;48.830;9.262;2023-07-20T13:23:23;98267.75;;;26.60;33.22
7760;BME280;3924;48.830;9.262;2023-07-20T13:25:50;98262.56;;;26.65;32.81
7760;BME280;3924;48.830;9.262;2023-07-20T13:28:16;98263.34;;;27.25;32.20
7760;BME280;3924;48.830;9.262;2023-07-20T13:30:43;98254.81;;;27.84;31.50
7760;BME280;3924;48.830;9.262;2023-07-20T13:33:11;98256.94;;;28.07;31.15
7760;BME280;3924;48.830;9.262;2023-07-20T13:35:43;98258.97;;;28.37;30.99
7760;BME280;3924;48.830;9.262;2023-07-20T13:38:13;98254.75;;;28.22;31.04
7760;BME280;3924;48.830;9.262;2023-07-20T13:40:40;98256.44;;;28.16;30.90